This is the latest recevied weather packets stored in our database for station/object KN4FVH. If no packets are shown the sender has not sent any weather packets the latest 1 day(s).
| Time | Temp. | Humidity | Pressure | Rain* | Wind** | Luminosity | Snow |
|---|---|---|---|---|---|---|---|
| 1778093822 | 20° C | 90% | 1016.2 hPa | 0 mm | - | 4 W/m² | - |
| 1778093518 | 20° C | 88% | 1016.1 hPa | 0 mm | - | 7 W/m² | - |
| 1778093211 | 20.56° C | 85% | 1016.4 hPa | 0 mm | - | 4 W/m² | - |
| 1778092604 | 23.33° C | 70% | 1015.7 hPa | 0 mm | - | 7 W/m² | - |
| 1778091694 | 23.89° C | 67% | 1015.2 hPa | 0 mm | - | 10 W/m² | - |
| 1778091392 | 23.89° C | 68% | 1015.5 hPa | 0 mm | - | 14 W/m² | - |
| 1778091089 | 23.89° C | 68% | 1015.7 hPa | 0 mm | - | 26 W/m² | - |
| 1778089574 | 23.89° C | 68% | 1015.6 hPa | 0 mm | - | 27 W/m² | - |
| 1778088664 | 22.78° C | 71% | 1015.9 hPa | 0 mm | - | 30 W/m² | - |
| 1778088057 | 22.78° C | 71% | 1016 hPa | 0 mm | - | 31 W/m² | - |
| 1778087755 | 22.22° C | 72% | 1015.9 hPa | 0 mm | - | 27 W/m² | - |
| 1778085630 | 20.56° C | 79% | 1016.3 hPa | 0 mm | - | 12 W/m² | - |
| 1778084113 | 20.56° C | 76% | 1016.4 hPa | 0 mm | - | 12 W/m² | - |
| 1778082897 | 20.56° C | 75% | 1016.3 hPa | 0 mm | - | 9 W/m² | - |
| 1778081183 | 20° C | 75% | 1016 hPa | 0 mm | - | 10 W/m² | - |
| 1778080275 | 20° C | 74% | 1016.2 hPa | 0 mm | - | 9 W/m² | - |
| 1778079972 | 20° C | 73% | 1015.9 hPa | 0 mm | - | 8 W/m² | - |
| 1778078760 | 20° C | 73% | 1015.8 hPa | 0 mm | - | 8 W/m² | - |
| 1778078155 | 20° C | 73% | 1016 hPa | 0 mm | - | 12 W/m² | - |
| 1778076945 | 19.44° C | 74% | 1016.2 hPa | 0 mm | - | 15 W/m² | - |
| 1778076038 | 18.89° C | 77% | 1016.4 hPa | 0 mm | - | 12 W/m² | - |
| 1778073612 | 18.33° C | 78% | 1016.9 hPa | 0 mm | - | 8 W/m² | - |
| 1778073309 | 18.33° C | 78% | 1016.8 hPa | 0 mm | - | 7 W/m² | - |
| 1778072098 | 18.33° C | 78% | 1016.3 hPa | 0 mm | - | 4 W/m² | - |
| 1778071795 | 18.33° C | 79% | 1016.5 hPa | 0 mm | - | 4 W/m² | - |
* Rain latest hour (hover to see other rain measurements)
** Current wind speed in m/s (hover to see current wind gust speed)